createdAt,value
2018-04-26T00:00:08.088Z,21.31
2018-04-26T00:00:45.415Z,21.31
2018-04-26T00:01:22.787Z,21.33
2018-04-26T00:02:00.390Z,21.33
2018-04-26T00:02:38.004Z,21.32
2018-04-26T00:03:15.555Z,21.28
2018-04-26T00:03:52.951Z,21.27
2018-04-26T00:04:30.523Z,21.19
2018-04-26T00:05:08.094Z,21.17
2018-04-26T00:05:45.719Z,21.18
2018-04-26T00:06:23.119Z,21.15
2018-04-26T00:07:00.495Z,21.09
2018-04-26T00:07:38.070Z,21.12
2018-04-26T00:08:16.244Z,21.05
2018-04-26T00:08:53.594Z,21.10
2018-04-26T00:09:30.967Z,21.03
2018-04-26T00:10:08.484Z,21.01
2018-04-26T00:10:46.611Z,20.99
2018-04-26T00:11:24.058Z,21.00
2018-04-26T00:12:01.672Z,21.08
2018-04-26T00:12:39.034Z,21.10
2018-04-26T00:13:16.599Z,21.12
2018-04-26T00:13:54.026Z,21.16
2018-04-26T00:14:31.507Z,21.16
2018-04-26T00:15:09.651Z,21.17
2018-04-26T00:15:47.208Z,21.22
2018-04-26T00:16:25.547Z,21.26
2018-04-26T00:17:03.129Z,21.29
2018-04-26T00:17:40.514Z,21.31
2018-04-26T00:18:17.888Z,21.30
2018-04-26T00:18:55.740Z,21.32
2018-04-26T00:19:33.456Z,21.35
2018-04-26T00:20:11.761Z,21.38
2018-04-26T00:20:49.324Z,21.35
2018-04-26T00:21:26.905Z,21.34
2018-04-26T00:22:04.490Z,21.36
2018-04-26T00:22:41.928Z,21.35
2018-04-26T00:23:19.339Z,21.35
2018-04-26T00:23:56.923Z,21.36
2018-04-26T00:24:34.487Z,21.36
2018-04-26T00:25:12.090Z,21.35
2018-04-26T00:25:49.539Z,21.32
2018-04-26T00:26:26.879Z,21.31
2018-04-26T00:27:04.430Z,21.28
2018-04-26T00:27:41.974Z,21.20
2018-04-26T00:28:19.630Z,21.12
2018-04-26T00:28:57.001Z,21.10
2018-04-26T00:29:34.606Z,21.09
2018-04-26T00:30:12.176Z,21.11
2018-04-26T00:30:49.710Z,21.14
2018-04-26T00:31:27.023Z,21.16
2018-04-26T00:32:04.552Z,21.13
2018-04-26T00:32:41.905Z,21.12
2018-04-26T00:33:19.272Z,21.05
2018-04-26T00:33:56.627Z,21.06
2018-04-26T00:34:34.003Z,21.11
2018-04-26T00:35:11.323Z,21.11
2018-04-26T00:35:48.896Z,21.09
2018-04-26T00:36:26.413Z,21.14
2018-04-26T00:37:03.970Z,21.20
2018-04-26T00:37:41.312Z,21.17
2018-04-26T00:38:19.449Z,21.14
2018-04-26T00:38:56.927Z,21.17
2018-04-26T00:39:34.253Z,21.14
2018-04-26T00:40:12.379Z,21.17
2018-04-26T00:40:49.882Z,21.15
2018-04-26T00:41:27.437Z,21.15
2018-04-26T00:42:04.835Z,21.18
2018-04-26T00:42:42.251Z,21.16
2018-04-26T00:43:19.856Z,21.17
2018-04-26T00:43:57.232Z,21.19
2018-04-26T00:44:34.776Z,21.23
2018-04-26T00:45:12.344Z,21.27
2018-04-26T00:45:50.707Z,21.29
2018-04-26T00:46:29.018Z,21.32
2018-04-26T00:47:06.489Z,21.30
2018-04-26T00:47:43.995Z,21.30
2018-04-26T00:48:21.428Z,21.33
2018-04-26T00:48:58.831Z,21.28
2018-04-26T00:49:36.236Z,21.24
2018-04-26T00:50:14.417Z,21.19
2018-04-26T00:50:51.989Z,21.12
2018-04-26T00:51:29.482Z,21.12
2018-04-26T00:52:07.052Z,21.07
2018-04-26T00:52:45.347Z,21.03
2018-04-26T00:53:22.826Z,20.95
2018-04-26T00:54:00.322Z,20.95
2018-04-26T00:54:37.789Z,20.95
2018-04-26T00:55:15.338Z,20.96
2018-04-26T00:55:52.851Z,20.99
2018-04-26T00:56:30.431Z,21.04
2018-04-26T00:57:08.005Z,21.10
2018-04-26T00:57:45.604Z,21.16
2018-04-26T00:58:23.794Z,21.21
2018-04-26T00:59:01.265Z,21.21
2018-04-26T00:59:38.631Z,21.26
2018-04-26T01:00:16.175Z,21.20
2018-04-26T01:00:53.689Z,21.20
2018-04-26T01:01:31.279Z,21.13
2018-04-26T01:02:08.782Z,21.09
2018-04-26T01:02:46.219Z,21.06
2018-04-26T01:03:24.558Z,20.99
2018-04-26T01:04:02.723Z,20.89
2018-04-26T01:04:40.310Z,20.81
2018-04-26T01:05:18.500Z,20.73
2018-04-26T01:05:56.647Z,20.70
2018-04-26T01:06:34.999Z,20.72
2018-04-26T01:07:12.599Z,20.72
2018-04-26T01:07:50.149Z,20.72
2018-04-26T01:08:27.769Z,20.69
2018-04-26T01:09:05.332Z,20.56
2018-04-26T01:09:42.895Z,20.56
2018-04-26T01:10:20.483Z,20.57
2018-04-26T01:10:58.109Z,20.58
2018-04-26T01:11:35.641Z,20.54
2018-04-26T01:12:13.108Z,20.59
2018-04-26T01:12:50.607Z,20.61
2018-04-26T01:13:28.229Z,20.53
2018-04-26T01:14:05.922Z,20.50
2018-04-26T01:14:43.475Z,20.53
2018-04-26T01:15:21.030Z,20.51
2018-04-26T01:15:58.611Z,20.55
2018-04-26T01:16:35.954Z,20.55
2018-04-26T01:17:13.318Z,20.63
2018-04-26T01:17:51.446Z,20.66
2018-04-26T01:18:29.076Z,20.72
2018-04-26T01:19:06.665Z,20.73
2018-04-26T01:19:44.199Z,20.71
2018-04-26T01:20:21.552Z,20.70
2018-04-26T01:20:58.988Z,20.69
2018-04-26T01:21:36.511Z,20.70
2018-04-26T01:22:14.612Z,20.64
2018-04-26T01:22:51.997Z,20.63
2018-04-26T01:23:29.499Z,20.63
2018-04-26T01:24:07.056Z,20.70
2018-04-26T01:24:44.694Z,20.71
2018-04-26T01:25:22.332Z,20.68
2018-04-26T01:25:59.685Z,20.68
2018-04-26T01:26:37.272Z,20.55
2018-04-26T01:27:14.839Z,20.52
2018-04-26T01:27:52.444Z,20.43
2018-04-26T01:28:30.085Z,20.41
2018-04-26T01:29:07.639Z,20.44
2018-04-26T01:29:45.055Z,20.38
2018-04-26T01:30:22.573Z,20.41
2018-04-26T01:31:00.174Z,20.45
2018-04-26T01:31:37.713Z,20.48
2018-04-26T01:32:15.215Z,20.53
2018-04-26T01:32:52.783Z,20.51
2018-04-26T01:33:30.271Z,20.54
2018-04-26T01:34:07.856Z,20.54
2018-04-26T01:34:45.215Z,20.49
2018-04-26T01:35:22.571Z,20.53
2018-04-26T01:36:00.689Z,20.57
2018-04-26T01:36:38.984Z,20.55
2018-04-26T01:37:17.093Z,20.55
2018-04-26T01:37:54.720Z,20.52
2018-04-26T01:38:32.243Z,20.57
2018-04-26T01:39:10.332Z,20.58
2018-04-26T01:39:47.731Z,20.60
2018-04-26T01:40:26.002Z,20.56
2018-04-26T01:41:04.322Z,20.55
2018-04-26T01:41:41.702Z,20.56
2018-04-26T01:42:19.304Z,20.54
2018-04-26T01:42:57.676Z,20.52
2018-04-26T01:43:35.871Z,20.49
2018-04-26T01:44:13.447Z,20.45
2018-04-26T01:44:50.896Z,20.46
2018-04-26T01:45:28.322Z,20.48
2018-04-26T01:46:05.887Z,20.54
2018-04-26T01:46:43.391Z,20.57
2018-04-26T01:47:20.955Z,20.57
2018-04-26T01:47:58.500Z,20.58
2018-04-26T01:48:35.828Z,20.59
2018-04-26T01:49:13.393Z,20.54
2018-04-26T01:49:50.998Z,20.59
2018-04-26T01:50:28.565Z,20.54
2018-04-26T01:51:06.759Z,20.55
2018-04-26T01:51:44.349Z,20.63
2018-04-26T01:52:21.890Z,20.60
2018-04-26T01:52:59.491Z,20.57
2018-04-26T01:53:37.091Z,20.56
2018-04-26T01:54:14.641Z,20.55
2018-04-26T01:54:52.096Z,20.58
2018-04-26T01:55:29.619Z,20.62
2018-04-26T01:56:07.180Z,20.64
2018-04-26T01:56:44.551Z,20.67
2018-04-26T01:57:22.112Z,20.73
2018-04-26T01:57:59.514Z,20.71
2018-04-26T01:58:37.116Z,20.72
2018-04-26T01:59:14.711Z,20.73
2018-04-26T01:59:52.275Z,20.73
2018-04-26T02:00:29.839Z,20.72
2018-04-26T02:01:07.450Z,20.64
2018-04-26T02:01:45.010Z,20.68
2018-04-26T02:02:22.506Z,20.69
2018-04-26T02:02:59.947Z,20.68
2018-04-26T02:03:38.272Z,20.58
2018-04-26T02:04:16.447Z,20.55
2018-04-26T02:04:54.202Z,20.53
2018-04-26T02:05:31.639Z,20.53
2018-04-26T02:06:09.212Z,20.51
2018-04-26T02:06:46.567Z,20.56
2018-04-26T02:07:24.858Z,20.55
2018-04-26T02:08:02.179Z,20.49
2018-04-26T02:08:39.587Z,20.50
2018-04-26T02:09:17.140Z,20.51
2018-04-26T02:09:54.511Z,20.48
2018-04-26T02:10:31.991Z,20.39
2018-04-26T02:11:09.410Z,20.41
2018-04-26T02:11:46.833Z,20.37
2018-04-26T02:12:24.156Z,20.42
2018-04-26T02:13:01.812Z,20.44
2018-04-26T02:13:39.360Z,20.45
2018-04-26T02:14:16.989Z,20.42
2018-04-26T02:14:54.332Z,20.48
2018-04-26T02:15:31.720Z,20.41
2018-04-26T02:16:09.295Z,20.43
2018-04-26T02:16:46.875Z,20.48
2018-04-26T02:17:24.438Z,20.48
2018-04-26T02:18:02.047Z,20.45
2018-04-26T02:18:39.443Z,20.49
2018-04-26T02:19:16.901Z,20.51
2018-04-26T02:19:54.397Z,20.52
2018-04-26T02:20:31.915Z,20.51
2018-04-26T02:21:09.242Z,20.48
2018-04-26T02:21:46.663Z,20.40
2018-04-26T02:22:24.037Z,20.42
2018-04-26T02:23:01.545Z,20.35
2018-04-26T02:23:39.157Z,20.38
2018-04-26T02:24:16.788Z,20.44
2018-04-26T02:24:54.199Z,20.42
2018-04-26T02:25:31.760Z,20.46
2018-04-26T02:26:09.313Z,20.48
2018-04-26T02:26:46.807Z,20.55
2018-04-26T02:27:24.158Z,20.62
2018-04-26T02:28:01.482Z,20.64
2018-04-26T02:28:39.023Z,20.67
2018-04-26T02:29:17.351Z,20.68
2018-04-26T02:29:54.915Z,20.69
2018-04-26T02:30:32.291Z,20.68
2018-04-26T02:31:09.650Z,20.71
2018-04-26T02:31:47.796Z,20.73
2018-04-26T02:32:25.408Z,20.75
2018-04-26T02:33:02.959Z,20.72
2018-04-26T02:33:40.493Z,20.75
2018-04-26T02:34:17.865Z,20.74
2018-04-26T02:34:56.025Z,20.77
2018-04-26T02:35:33.619Z,20.75
2018-04-26T02:36:11.879Z,20.78
2018-04-26T02:36:50.159Z,20.84
2018-04-26T02:37:27.758Z,20.79
2018-04-26T02:38:05.347Z,20.79
2018-04-26T02:38:42.786Z,20.74
2018-04-26T02:39:20.175Z,20.66
2018-04-26T02:39:58.287Z,20.67
2018-04-26T02:40:36.376Z,20.75
2018-04-26T02:41:13.988Z,20.77
2018-04-26T02:41:52.262Z,20.83
2018-04-26T02:42:29.838Z,20.71
2018-04-26T02:43:07.176Z,20.77
2018-04-26T02:43:44.804Z,20.79
2018-04-26T02:44:22.939Z,20.74
2018-04-26T02:45:00.296Z,20.73
2018-04-26T02:45:37.667Z,20.66
2018-04-26T02:46:16.032Z,20.60
2018-04-26T02:46:54.131Z,20.54
2018-04-26T02:47:32.232Z,20.40
2018-04-26T02:48:09.866Z,20.22
2018-04-26T02:48:47.386Z,20.17
2018-04-26T02:49:25.773Z,20.19
2018-04-26T02:50:03.290Z,20.23
2018-04-26T02:50:40.606Z,20.24
2018-04-26T02:51:17.977Z,20.36
2018-04-26T02:51:55.488Z,20.38
2018-04-26T02:52:33.029Z,20.35
2018-04-26T02:53:10.567Z,20.31
2018-04-26T02:53:47.970Z,20.37
2018-04-26T02:54:25.540Z,20.35
2018-04-26T02:55:02.919Z,20.33
2018-04-26T02:55:40.449Z,20.23
2018-04-26T02:56:18.075Z,20.23
2018-04-26T02:56:55.698Z,20.27
2018-04-26T02:57:33.279Z,20.22
2018-04-26T02:58:10.815Z,20.17
2018-04-26T02:58:48.439Z,20.10
2018-04-26T02:59:26.006Z,20.10
2018-04-26T03:00:03.407Z,20.11
2018-04-26T03:00:40.940Z,20.06
2018-04-26T03:01:19.332Z,20.07
2018-04-26T03:01:56.883Z,20.06
2018-04-26T03:02:34.231Z,19.97
2018-04-26T03:03:11.872Z,20.00
2018-04-26T03:03:49.986Z,20.05
2018-04-26T03:04:28.056Z,20.03
2018-04-26T03:05:05.627Z,20.03
2018-04-26T03:05:43.187Z,20.08
2018-04-26T03:06:20.541Z,20.16
2018-04-26T03:06:57.874Z,20.07
2018-04-26T03:07:35.470Z,20.13
2018-04-26T03:08:13.101Z,20.16
2018-04-26T03:08:50.367Z,20.04
2018-04-26T03:09:27.837Z,20.08
2018-04-26T03:10:05.366Z,20.03
2018-04-26T03:10:42.922Z,20.08
2018-04-26T03:11:21.132Z,19.97
2018-04-26T03:11:58.483Z,20.01
2018-04-26T03:12:35.855Z,19.95
2018-04-26T03:13:13.232Z,20.08
2018-04-26T03:13:50.835Z,20.12
2018-04-26T03:14:28.939Z,19.91
2018-04-26T03:15:06.521Z,19.92
2018-04-26T03:15:44.135Z,19.99
2018-04-26T03:16:21.447Z,20.05
2018-04-26T03:16:59.564Z,20.17
2018-04-26T03:17:37.119Z,20.19
2018-04-26T03:18:14.493Z,20.25
2018-04-26T03:18:51.834Z,20.29
2018-04-26T03:19:29.443Z,20.26
2018-04-26T03:20:06.954Z,20.16
2018-04-26T03:20:44.333Z,20.23
2018-04-26T03:21:22.651Z,20.21
2018-04-26T03:22:00.215Z,20.20
2018-04-26T03:22:37.597Z,20.16
2018-04-26T03:23:15.175Z,20.12
2018-04-26T03:23:52.530Z,20.07
2018-04-26T03:24:29.901Z,20.10
2018-04-26T03:25:07.279Z,20.18
2018-04-26T03:25:44.901Z,20.14
2018-04-26T03:26:23.278Z,20.09
2018-04-26T03:27:01.378Z,20.03
2018-04-26T03:27:38.747Z,20.03
2018-04-26T03:28:16.036Z,20.09
2018-04-26T03:28:53.482Z,20.11
2018-04-26T03:29:30.858Z,20.02
2018-04-26T03:30:08.388Z,20.04
2018-04-26T03:30:45.986Z,20.04
2018-04-26T03:31:24.239Z,20.07
2018-04-26T03:32:01.844Z,20.11
2018-04-26T03:32:39.426Z,20.18
2018-04-26T03:33:17.651Z,20.20
2018-04-26T03:33:55.002Z,20.21
2018-04-26T03:34:33.286Z,20.19
2018-04-26T03:35:10.837Z,20.15
2018-04-26T03:35:49.169Z,20.17
2018-04-26T03:36:26.739Z,20.10
2018-04-26T03:37:04.209Z,20.04
2018-04-26T03:37:41.588Z,20.02
2018-04-26T03:38:19.679Z,20.09
2018-04-26T03:38:57.013Z,20.08
2018-04-26T03:39:34.542Z,20.05
2018-04-26T03:40:11.916Z,19.97
2018-04-26T03:40:50.200Z,20.06
2018-04-26T03:41:27.789Z,20.04
2018-04-26T03:42:05.407Z,20.08
2018-04-26T03:42:42.930Z,20.04
2018-04-26T03:43:20.558Z,19.91
2018-04-26T03:43:58.143Z,19.84
2018-04-26T03:44:35.696Z,19.81
2018-04-26T03:45:13.269Z,19.77
2018-04-26T03:45:50.884Z,19.69
2018-04-26T03:46:29.154Z,19.69
2018-04-26T03:47:06.462Z,19.70
2018-04-26T03:47:44.017Z,19.78
2018-04-26T03:48:21.577Z,19.70
2018-04-26T03:48:59.041Z,19.77
2018-04-26T03:49:36.601Z,19.83
2018-04-26T03:50:14.852Z,19.85
2018-04-26T03:50:52.447Z,19.74
2018-04-26T03:51:30.040Z,19.71
2018-04-26T03:52:07.625Z,19.70
2018-04-26T03:52:45.057Z,19.70
2018-04-26T03:53:23.171Z,19.77
2018-04-26T03:54:00.637Z,19.78
2018-04-26T03:54:38.725Z,19.89
2018-04-26T03:55:16.119Z,19.83
2018-04-26T03:55:53.564Z,19.79
2018-04-26T03:56:31.104Z,19.74
2018-04-26T03:57:08.558Z,19.83
2018-04-26T03:57:46.952Z,19.87
2018-04-26T03:58:25.050Z,19.92
2018-04-26T03:59:02.630Z,19.94
2018-04-26T03:59:40.819Z,19.99
2018-04-26T04:00:18.913Z,19.93
2018-04-26T04:00:56.460Z,19.96
2018-04-26T04:01:34.046Z,19.97
2018-04-26T04:02:12.280Z,19.96
2018-04-26T04:02:49.839Z,19.88
2018-04-26T04:03:27.432Z,19.82
2018-04-26T04:04:04.811Z,19.71
2018-04-26T04:04:42.410Z,19.52
2018-04-26T04:05:20.699Z,19.48
2018-04-26T04:05:58.055Z,19.36
2018-04-26T04:06:35.435Z,19.38
2018-04-26T04:07:12.807Z,19.36
2018-04-26T04:07:50.916Z,19.37
2018-04-26T04:08:28.268Z,19.29
2018-04-26T04:09:06.398Z,19.24
2018-04-26T04:09:43.869Z,19.25
2018-04-26T04:10:21.473Z,19.20
2018-04-26T04:10:58.958Z,19.20
2018-04-26T04:11:37.144Z,19.22
2018-04-26T04:12:15.415Z,19.26
2018-04-26T04:12:53.009Z,19.29
2018-04-26T04:13:30.575Z,19.36
2018-04-26T04:14:08.071Z,19.47
2018-04-26T04:14:45.576Z,19.44
2018-04-26T04:15:23.200Z,19.45
2018-04-26T04:16:00.779Z,19.39
2018-04-26T04:16:38.323Z,19.40
2018-04-26T04:17:15.965Z,19.51
2018-04-26T04:17:53.349Z,19.62
2018-04-26T04:18:30.696Z,19.75
2018-04-26T04:19:08.205Z,19.85
2018-04-26T04:19:46.500Z,19.88
2018-04-26T04:20:24.065Z,19.90
2018-04-26T04:21:01.427Z,19.88
2018-04-26T04:21:38.922Z,19.89
2018-04-26T04:22:16.520Z,19.85
2018-04-26T04:22:54.097Z,19.84
2018-04-26T04:23:31.618Z,19.90
2018-04-26T04:24:09.082Z,19.83
2018-04-26T04:24:46.436Z,19.73
2018-04-26T04:25:24.033Z,19.70
2018-04-26T04:26:01.650Z,19.63
2018-04-26T04:26:39.179Z,19.48
2018-04-26T04:27:17.362Z,19.43
2018-04-26T04:27:55.503Z,19.32
2018-04-26T04:28:32.816Z,19.34
2018-04-26T04:29:10.178Z,19.33
2018-04-26T04:29:47.683Z,19.32
2018-04-26T04:30:25.212Z,19.36
2018-04-26T04:31:02.734Z,19.29
2018-04-26T04:31:40.267Z,19.14
2018-04-26T04:32:17.813Z,19.05
2018-04-26T04:32:56.108Z,19.04
2018-04-26T04:33:34.281Z,19.05
2018-04-26T04:34:11.831Z,19.15
2018-04-26T04:34:49.432Z,19.20
2018-04-26T04:35:26.935Z,19.21
2018-04-26T04:36:04.349Z,19.29
2018-04-26T04:36:42.613Z,19.29
2018-04-26T04:37:20.917Z,19.38
2018-04-26T04:37:59.210Z,19.36
2018-04-26T04:38:37.518Z,19.32
2018-04-26T04:39:15.080Z,19.29
2018-04-26T04:39:52.608Z,19.33
2018-04-26T04:40:29.926Z,19.34
2018-04-26T04:41:07.539Z,19.38
2018-04-26T04:41:45.134Z,19.36
2018-04-26T04:42:23.526Z,19.23
2018-04-26T04:43:01.107Z,19.23
2018-04-26T04:43:38.747Z,19.17
2018-04-26T04:44:16.127Z,19.11
2018-04-26T04:44:53.804Z,19.12
2018-04-26T04:45:31.513Z,19.11
2018-04-26T04:46:08.986Z,19.05
2018-04-26T04:46:46.353Z,19.00
2018-04-26T04:47:23.865Z,18.97
2018-04-26T04:48:01.227Z,18.81
2018-04-26T04:48:38.595Z,18.85
2018-04-26T04:49:16.126Z,18.77
2018-04-26T04:49:53.746Z,18.70
2018-04-26T04:50:31.291Z,18.61
2018-04-26T04:51:08.856Z,18.61
2018-04-26T04:52:16.144Z,18.53
2018-04-26T04:52:54.330Z,18.59
2018-04-26T04:53:31.914Z,18.72
2018-04-26T04:54:09.498Z,18.76
2018-04-26T04:54:47.064Z,18.77
2018-04-26T04:55:24.697Z,18.77
2018-04-26T04:56:02.224Z,18.77
2018-04-26T04:56:40.411Z,18.80
2018-04-26T04:57:17.991Z,18.87
2018-04-26T04:57:55.484Z,18.96
2018-04-26T04:58:33.051Z,19.07
2018-04-26T04:59:11.235Z,19.09
2018-04-26T04:59:48.873Z,19.15
2018-04-26T05:00:26.281Z,19.20
2018-04-26T05:01:03.685Z,19.24
2018-04-26T05:01:41.273Z,19.18
2018-04-26T05:02:18.883Z,19.20
2018-04-26T05:02:56.346Z,19.08
2018-04-26T05:03:33.900Z,19.07
2018-04-26T05:04:11.521Z,18.91
2018-04-26T05:04:49.141Z,18.96
2018-04-26T05:05:26.488Z,19.04
2018-04-26T05:06:03.946Z,19.04
2018-04-26T05:06:41.531Z,19.12
2018-04-26T05:07:19.120Z,19.21
2018-04-26T05:07:56.467Z,19.23
2018-04-26T05:08:34.041Z,19.34
2018-04-26T05:09:11.648Z,19.42
2018-04-26T05:09:49.104Z,19.44
2018-04-26T05:10:26.658Z,19.47
2018-04-26T05:11:04.213Z,19.32
2018-04-26T05:11:41.604Z,19.18
2018-04-26T05:12:18.986Z,19.04
2018-04-26T05:12:56.341Z,19.08
2018-04-26T05:13:33.743Z,19.01
2018-04-26T05:14:11.335Z,18.97
2018-04-26T05:14:48.718Z,18.97
2018-04-26T05:15:26.316Z,18.99
2018-04-26T05:16:03.898Z,19.06
2018-04-26T05:16:41.357Z,18.95
2018-04-26T05:17:18.983Z,19.04
2018-04-26T05:17:56.535Z,18.97
2018-04-26T05:18:34.108Z,18.94
2018-04-26T05:19:12.204Z,18.96
2018-04-26T05:19:49.621Z,18.92
2018-04-26T05:20:26.963Z,19.00
2018-04-26T05:21:04.583Z,18.86
2018-04-26T05:21:42.124Z,18.74
2018-04-26T05:22:19.620Z,18.68
2018-04-26T05:22:57.215Z,18.64
2018-04-26T05:23:35.485Z,18.61
2018-04-26T05:24:13.089Z,18.56
2018-04-26T05:24:50.667Z,18.55
2018-04-26T05:25:28.060Z,18.63
2018-04-26T05:26:05.490Z,18.64
2018-04-26T05:26:43.000Z,18.67
2018-04-26T05:27:20.579Z,18.77
2018-04-26T05:27:58.042Z,18.82
2018-04-26T05:28:35.494Z,18.91
2018-04-26T05:29:13.826Z,18.93
2018-04-26T05:29:51.223Z,18.89
2018-04-26T05:30:28.673Z,18.96
2018-04-26T05:31:06.112Z,18.90
2018-04-26T05:31:43.761Z,18.94
2018-04-26T05:32:21.344Z,19.01
2018-04-26T05:32:58.827Z,18.96
2018-04-26T05:33:36.307Z,18.89
2018-04-26T05:34:13.875Z,18.82
2018-04-26T05:34:52.061Z,18.64
2018-04-26T05:35:30.252Z,18.53
2018-04-26T05:36:07.834Z,18.30
2018-04-26T05:36:45.323Z,18.33
2018-04-26T05:37:22.895Z,18.36
2018-04-26T05:38:00.247Z,18.39
2018-04-26T05:38:38.378Z,18.39
2018-04-26T05:39:15.958Z,18.44
2018-04-26T05:39:53.528Z,18.38
2018-04-26T05:40:31.177Z,18.39
2018-04-26T05:41:08.735Z,18.42
2018-04-26T05:41:46.244Z,18.38
2018-04-26T05:42:24.362Z,18.46
2018-04-26T05:43:01.707Z,18.45
2018-04-26T05:43:39.836Z,18.25
2018-04-26T05:44:17.275Z,18.20
2018-04-26T05:44:54.666Z,18.28
2018-04-26T05:45:31.976Z,18.36
2018-04-26T05:46:09.562Z,18.42
2018-04-26T05:46:47.129Z,18.57
2018-04-26T05:47:24.700Z,18.66
2018-04-26T05:48:02.163Z,18.66
2018-04-26T05:48:39.770Z,18.58
2018-04-26T05:49:17.306Z,18.61
2018-04-26T05:49:54.947Z,18.59
2018-04-26T05:50:32.335Z,18.57
2018-04-26T05:51:10.039Z,18.64
2018-04-26T05:51:47.678Z,18.56
2018-04-26T05:52:25.238Z,18.53
2018-04-26T05:53:02.602Z,18.64
2018-04-26T05:53:40.931Z,18.56
2018-04-26T05:54:19.239Z,18.61
2018-04-26T05:54:57.526Z,18.53
2018-04-26T05:55:35.071Z,18.53
2018-04-26T05:56:12.686Z,18.47
2018-04-26T05:56:50.869Z,18.48
2018-04-26T05:57:28.499Z,18.46
2018-04-26T05:58:06.094Z,18.56
2018-04-26T05:58:43.599Z,18.55
2018-04-26T05:59:20.933Z,18.48
2018-04-26T05:59:58.531Z,18.35
2018-04-26T06:00:36.152Z,18.26
2018-04-26T06:01:13.770Z,18.15
2018-04-26T06:01:51.296Z,18.14
2018-04-26T06:02:29.417Z,18.22
2018-04-26T06:03:07.009Z,18.27
2018-04-26T06:03:44.474Z,18.34
2018-04-26T06:04:21.853Z,18.44
2018-04-26T06:04:59.277Z,18.46
2018-04-26T06:05:36.791Z,18.52
2018-04-26T06:06:14.137Z,18.55
2018-04-26T06:06:51.691Z,18.69
2018-04-26T06:07:29.266Z,18.85
2018-04-26T06:08:06.871Z,18.82
2018-04-26T06:08:44.290Z,18.78
2018-04-26T06:09:21.790Z,18.80
2018-04-26T06:09:59.286Z,18.65
2018-04-26T06:10:36.846Z,18.62
2018-04-26T06:11:14.576Z,18.60
2018-04-26T06:11:52.145Z,18.53
2018-04-26T06:12:29.612Z,18.33
2018-04-26T06:13:07.062Z,18.25
2018-04-26T06:13:44.688Z,18.29
2018-04-26T06:14:22.289Z,18.21
2018-04-26T06:14:59.836Z,18.21
2018-04-26T06:15:37.191Z,18.16
2018-04-26T06:16:14.567Z,18.13
2018-04-26T06:16:52.802Z,18.03
2018-04-26T06:17:30.341Z,18.02
2018-04-26T06:18:07.911Z,18.00
2018-04-26T06:18:45.274Z,17.86
2018-04-26T06:19:22.895Z,17.91
2018-04-26T06:20:00.454Z,17.91
2018-04-26T06:20:38.048Z,17.95
2018-04-26T06:21:15.671Z,17.90
2018-04-26T06:21:53.074Z,17.99
2018-04-26T06:22:30.744Z,18.07
2018-04-26T06:23:08.138Z,17.96
2018-04-26T06:23:45.799Z,18.00
2018-04-26T06:24:23.363Z,18.06
2018-04-26T06:25:00.815Z,18.19
2018-04-26T06:25:38.335Z,18.22
2018-04-26T06:26:16.705Z,18.30
2018-04-26T06:26:54.298Z,18.29
2018-04-26T06:27:31.869Z,18.34
2018-04-26T06:28:09.434Z,18.31
2018-04-26T06:28:47.527Z,18.36
2018-04-26T06:29:25.131Z,18.29
2018-04-26T06:30:03.527Z,18.21
2018-04-26T06:30:41.050Z,18.29
2018-04-26T06:31:18.682Z,18.28
2018-04-26T06:31:56.852Z,18.24
2018-04-26T06:32:34.443Z,18.29
2018-04-26T06:33:11.815Z,18.45
2018-04-26T06:33:49.455Z,18.31
2018-04-26T06:34:26.909Z,18.22
2018-04-26T06:35:04.424Z,18.25
2018-04-26T06:35:42.823Z,18.11
2018-04-26T06:36:20.480Z,18.14
2018-04-26T06:36:58.651Z,18.07
2018-04-26T06:37:36.308Z,18.18
2018-04-26T06:38:14.455Z,18.25
2018-04-26T06:38:51.996Z,18.25
2018-04-26T06:39:29.443Z,18.33
2018-04-26T06:40:07.559Z,18.34
2018-04-26T06:40:44.846Z,18.35
2018-04-26T06:41:22.416Z,18.49
2018-04-26T06:41:59.772Z,18.49
2018-04-26T06:42:37.361Z,18.50
2018-04-26T06:43:14.738Z,18.51
2018-04-26T06:43:52.052Z,18.54
2018-04-26T06:44:29.631Z,18.49
2018-04-26T06:45:07.095Z,18.49
2018-04-26T06:45:45.393Z,18.52
2018-04-26T06:46:22.822Z,18.51
2018-04-26T06:47:00.373Z,18.53
2018-04-26T06:47:37.963Z,18.54
2018-04-26T06:48:15.342Z,18.54
2018-04-26T06:48:52.858Z,18.56
2018-04-26T06:49:31.289Z,18.55
2018-04-26T06:50:08.888Z,18.59
2018-04-26T06:50:46.222Z,18.60
2018-04-26T06:51:23.850Z,18.66
2018-04-26T06:52:01.455Z,18.78
2018-04-26T06:52:38.995Z,18.79
2018-04-26T06:53:16.575Z,18.63
2018-04-26T06:53:54.188Z,18.61
2018-04-26T06:54:31.714Z,18.45
2018-04-26T06:55:09.166Z,18.47
2018-04-26T06:55:46.675Z,18.48
2018-04-26T06:56:24.799Z,18.43
2018-04-26T06:57:02.867Z,18.47
2018-04-26T06:57:40.226Z,18.51
2018-04-26T06:58:17.833Z,18.50
2018-04-26T06:58:55.432Z,18.51
2018-04-26T06:59:32.905Z,18.41
2018-04-26T07:00:10.475Z,18.37
2018-04-26T07:00:48.026Z,18.34
2018-04-26T07:01:25.550Z,18.50
2018-04-26T07:02:03.047Z,18.53
2018-04-26T07:02:40.591Z,18.57
2018-04-26T07:03:18.182Z,18.49
2018-04-26T07:03:55.561Z,18.49
2018-04-26T07:04:33.744Z,18.54
2018-04-26T07:05:11.344Z,18.62
2018-04-26T07:05:48.959Z,18.68
2018-04-26T07:06:26.507Z,18.74
2018-04-26T07:07:04.109Z,18.69
2018-04-26T07:07:42.465Z,18.59
2018-04-26T07:08:19.828Z,18.42
2018-04-26T07:08:57.204Z,18.34
2018-04-26T07:09:34.611Z,18.43
2018-04-26T07:10:12.903Z,18.47
2018-04-26T07:10:50.507Z,18.48
2018-04-26T07:11:27.958Z,18.46
2018-04-26T07:12:06.322Z,18.44
2018-04-26T07:12:43.843Z,18.45
2018-04-26T07:13:21.431Z,18.42
2018-04-26T07:13:59.028Z,18.36
2018-04-26T07:14:36.574Z,18.44
2018-04-26T07:15:13.923Z,18.29
2018-04-26T07:15:51.294Z,18.18
2018-04-26T07:16:28.907Z,18.14
2018-04-26T07:17:06.346Z,18.14
2018-04-26T07:17:43.923Z,18.15
2018-04-26T07:18:21.495Z,18.14
2018-04-26T07:18:59.031Z,18.16
2018-04-26T07:19:37.116Z,18.16
2018-04-26T07:20:14.485Z,18.13
2018-04-26T07:20:52.059Z,18.17
2018-04-26T07:21:29.393Z,18.17
2018-04-26T07:22:07.010Z,18.26
2018-04-26T07:22:44.494Z,18.27
2018-04-26T07:23:21.866Z,18.20
2018-04-26T07:23:59.268Z,18.24
2018-04-26T07:24:36.647Z,18.28
2018-04-26T07:25:14.160Z,18.11
2018-04-26T07:25:51.679Z,18.05
2018-04-26T07:26:30.020Z,18.01
2018-04-26T07:27:07.484Z,18.05
2018-04-26T07:27:44.835Z,18.02
2018-04-26T07:28:22.199Z,18.08
2018-04-26T07:28:59.730Z,18.17
2018-04-26T07:29:37.322Z,18.18
2018-04-26T07:30:14.771Z,18.22
2018-04-26T07:30:52.145Z,18.27
2018-04-26T07:31:29.635Z,18.25
2018-04-26T07:32:07.740Z,18.34
2018-04-26T07:32:45.084Z,18.51
2018-04-26T07:33:22.676Z,18.56
2018-04-26T07:34:00.282Z,18.66
2018-04-26T07:34:37.825Z,18.76
2018-04-26T07:35:15.146Z,18.68
2018-04-26T07:35:52.690Z,18.65
2018-04-26T07:36:30.262Z,18.65
2018-04-26T07:37:07.645Z,18.69
2018-04-26T07:37:45.145Z,18.77
2018-04-26T07:38:22.527Z,18.69
2018-04-26T07:38:59.962Z,18.55
2018-04-26T07:39:37.566Z,18.35
2018-04-26T07:40:15.155Z,18.30
2018-04-26T07:40:52.499Z,18.19
2018-04-26T07:41:30.113Z,18.16
2018-04-26T07:42:07.728Z,18.02
2018-04-26T07:42:45.245Z,17.97
2018-04-26T07:43:22.856Z,18.12
2018-04-26T07:44:00.351Z,18.21
2018-04-26T07:44:37.779Z,18.17
2018-04-26T07:45:15.323Z,18.07
2018-04-26T07:45:52.870Z,18.15
2018-04-26T07:46:30.371Z,18.14
2018-04-26T07:47:07.937Z,18.17
2018-04-26T07:47:46.219Z,18.31
2018-04-26T07:48:23.788Z,18.23
2018-04-26T07:49:01.165Z,18.30
2018-04-26T07:49:38.703Z,18.36
2018-04-26T07:50:16.267Z,18.42
2018-04-26T07:50:54.592Z,18.45
2018-04-26T07:51:32.110Z,18.43
2018-04-26T07:52:09.642Z,18.42
2018-04-26T07:52:47.215Z,18.35
2018-04-26T07:53:25.495Z,18.35
2018-04-26T07:54:03.805Z,18.38
2018-04-26T07:54:41.294Z,18.39
2018-04-26T07:55:18.856Z,18.42
2018-04-26T07:55:56.447Z,18.33
2018-04-26T07:56:33.940Z,18.26
2018-04-26T07:57:11.507Z,18.24
2018-04-26T07:57:49.066Z,18.27
2018-04-26T07:58:27.386Z,18.38
2018-04-26T07:59:05.660Z,18.24
2018-04-26T07:59:43.019Z,18.22
2018-04-26T08:00:20.416Z,18.16
2018-04-26T08:00:57.777Z,18.17
2018-04-26T08:01:35.322Z,18.32
2018-04-26T08:02:12.953Z,18.48
2018-04-26T08:02:50.307Z,18.55
2018-04-26T08:03:27.691Z,18.60
2018-04-26T08:04:05.069Z,18.65
2018-04-26T08:04:42.438Z,18.77